createdAt,value
2024-02-29T00:04:50.640Z,5.9
2024-02-29T00:10:29.514Z,5.8
2024-02-29T00:16:08.713Z,5.8
2024-02-29T00:21:47.127Z,5.6
2024-02-29T00:27:10.792Z,5.6
2024-02-29T00:32:49.655Z,5.5
2024-02-29T00:38:34.327Z,5.4
2024-02-29T00:44:23.659Z,5.3
2024-02-29T00:50:03.121Z,5.3
2024-02-29T00:55:42.064Z,5.3
2024-02-29T01:06:44.577Z,5.1
2024-02-29T01:12:22.932Z,5
2024-02-29T01:18:01.966Z,4.9
2024-02-29T01:23:28.837Z,4.9
2024-02-29T01:29:07.019Z,4.8
2024-02-29T01:34:58.172Z,4.8
2024-02-29T01:40:36.968Z,4.6
2024-02-29T01:45:59.794Z,4.6
2024-02-29T01:51:38.968Z,4.6
2024-02-29T01:57:19.496Z,4.5
2024-02-29T02:03:01.110Z,4.4
2024-02-29T02:08:40.155Z,4.4
2024-02-29T02:14:19.277Z,4.4
2024-02-29T02:19:26.992Z,4.4
2024-02-29T02:24:50.061Z,4.3
2024-02-29T02:30:13.482Z,4.3
2024-02-29T02:35:35.899Z,4.3
2024-02-29T02:40:59.204Z,4.3
2024-02-29T02:46:06.612Z,4.2
2024-02-29T02:51:30.019Z,4.1
2024-02-29T02:56:37.631Z,4.1
2024-02-29T03:02:16.579Z,4.1
2024-02-29T03:07:55.381Z,4
2024-02-29T03:13:34.438Z,3.9
2024-02-29T03:19:13.383Z,3.9
2024-02-29T03:24:51.925Z,3.8
2024-02-29T03:30:30.751Z,3.8
2024-02-29T03:36:09.281Z,3.7
2024-02-29T03:41:47.903Z,3.7
2024-02-29T03:47:26.791Z,3.6
2024-02-29T03:53:05.690Z,3.6
2024-02-29T03:58:44.176Z,3.5
2024-02-29T04:04:23.490Z,3.4
2024-02-29T04:10:02.134Z,3.4
2024-02-29T04:15:40.807Z,3.3
2024-02-29T04:21:19.562Z,3.3
2024-02-29T04:26:58.561Z,3.3
2024-02-29T04:32:36.951Z,3.2
2024-02-29T04:38:16.209Z,3.2
2024-02-29T04:43:54.689Z,3.2
2024-02-29T04:49:17.511Z,3.2
2024-02-29T04:54:56.252Z,3.2
2024-02-29T05:00:35.332Z,3.1
2024-02-29T05:06:14.259Z,3.1
2024-02-29T05:11:38.818Z,3.1
2024-02-29T05:17:18.451Z,3.1
2024-02-29T05:22:56.792Z,3.1
2024-02-29T05:28:35.844Z,3.1
2024-02-29T05:34:16.625Z,3.1
2024-02-29T05:39:55.372Z,3.1
2024-02-29T05:45:38.548Z,3.2
2024-02-29T05:51:01.704Z,3.2
2024-02-29T05:56:39.897Z,3.3
2024-02-29T06:02:19.526Z,3.3
2024-02-29T06:07:58.327Z,3.4
2024-02-29T06:13:38.743Z,3.5
2024-02-29T06:19:17.800Z,3.6
2024-02-29T06:24:56.780Z,3.8
2024-02-29T06:30:35.725Z,4
2024-02-29T06:36:15.244Z,4.3
2024-02-29T06:41:54.172Z,4.6
2024-02-29T06:47:18.040Z,5.1
2024-02-29T06:52:57.317Z,5.6
2024-02-29T06:58:37.304Z,6
2024-02-29T07:04:15.982Z,6.6
2024-02-29T07:09:55.524Z,7.2
2024-02-29T07:15:35.162Z,7.8
2024-02-29T07:21:13.925Z,8.4
2024-02-29T07:26:37.900Z,9
2024-02-29T07:32:17.677Z,9.6
2024-02-29T07:37:41.335Z,10
2024-02-29T07:43:05.860Z,10.4
2024-02-29T07:48:47.618Z,10.7
2024-02-29T07:54:27.315Z,10.8
2024-02-29T08:00:10.778Z,10.9
2024-02-29T08:05:51.514Z,11.1
2024-02-29T08:11:30.802Z,11.2
2024-02-29T08:17:13.213Z,11.4
2024-02-29T08:22:52.566Z,12.1
2024-02-29T08:28:15.699Z,13.1
2024-02-29T08:33:57.399Z,13.8
2024-02-29T08:39:35.726Z,14.3
2024-02-29T08:45:14.278Z,14.5
2024-02-29T08:50:54.214Z,14.6
2024-02-29T08:56:32.499Z,14.6
2024-02-29T09:02:11.744Z,14.8
2024-02-29T09:07:53.721Z,15.2
2024-02-29T09:13:46.440Z,15.7
2024-02-29T09:19:26.804Z,16.4
2024-02-29T09:24:54.404Z,17.1
2024-02-29T09:30:37.181Z,17.6
2024-02-29T09:36:20.056Z,17.8
2024-02-29T09:42:51.208Z,17.8
2024-02-29T09:48:17.505Z,17.8
2024-02-29T09:54:06.396Z,17.8
2024-02-29T09:59:33.378Z,17.8
2024-02-29T10:05:15.496Z,17.8
2024-02-29T10:10:58.007Z,18.1
2024-02-29T10:16:37.322Z,18.9
2024-02-29T10:22:18.892Z,20.5
2024-02-29T10:27:56.709Z,22.4
2024-02-29T10:33:38.214Z,24.1
2024-02-29T10:39:19.334Z,25.7
2024-02-29T10:44:58.220Z,28.6
2024-02-29T10:50:22.432Z,33.4
2024-02-29T10:56:02.959Z,35.9
2024-02-29T11:01:41.835Z,36.6
2024-02-29T11:07:20.873Z,38.4
2024-02-29T11:13:00.451Z,45.3
2024-02-29T11:18:08.092Z,40.8
2024-02-29T11:24:06.163Z,40.1
2024-02-29T11:29:45.840Z,50.2
2024-02-29T11:35:25.214Z,53.2
2024-02-29T11:41:17.771Z,54.8
2024-02-29T11:46:41.365Z,54.9
2024-02-29T11:52:23.586Z,54.4
2024-02-29T11:58:18.843Z,54.1
2024-02-29T12:03:58.977Z,53.7
2024-02-29T12:09:38.555Z,53.1
2024-02-29T12:15:21.574Z,52.6
2024-02-29T12:20:45.721Z,52.1
2024-02-29T12:26:28.994Z,51.7
2024-02-29T12:32:09.026Z,51.4
2024-02-29T12:37:50.031Z,51.8
2024-02-29T12:43:30.211Z,51.1
2024-02-29T12:49:10.452Z,50.4
2024-02-29T12:54:50.983Z,50.4
2024-02-29T13:00:35.287Z,49.9
2024-02-29T13:06:18.450Z,49.4
2024-02-29T13:11:44.231Z,49
2024-02-29T13:16:59.103Z,48.8
2024-02-29T13:22:39.509Z,48.4
2024-02-29T13:28:07.687Z,48.3
2024-02-29T13:33:50.114Z,48
2024-02-29T13:39:29.705Z,47.6
2024-02-29T13:45:08.919Z,47.3
2024-02-29T13:50:50.274Z,48
2024-02-29T13:56:14.416Z,47.7
2024-02-29T14:01:38.924Z,46.9
2024-02-29T14:07:18.598Z,46.3
2024-02-29T14:12:58.400Z,45.2
2024-02-29T14:18:38.306Z,42.9
2024-02-29T14:24:19.504Z,41.2
2024-02-29T14:29:43.409Z,40.2
2024-02-29T14:35:24.223Z,39.6
2024-02-29T14:41:03.465Z,38.9
2024-02-29T14:46:43.256Z,38
2024-02-29T14:52:23.092Z,37.2
2024-02-29T14:58:03.651Z,36.2
2024-02-29T15:03:28.643Z,35
2024-02-29T15:09:09.649Z,33.7
2024-02-29T15:14:53.199Z,32.3
2024-02-29T15:20:33.507Z,31
2024-02-29T15:25:57.123Z,29.7
2024-02-29T15:31:20.804Z,28.5
2024-02-29T15:37:03.292Z,27.4
2024-02-29T15:42:42.524Z,26.3
2024-02-29T15:48:21.785Z,25.3
2024-02-29T15:54:04.714Z,24.4
2024-02-29T15:59:30.637Z,23.6
2024-02-29T16:05:10.521Z,22.7
2024-02-29T16:10:51.581Z,21.9
2024-02-29T16:21:42.730Z,20.4
2024-02-29T16:27:22.590Z,19.8
2024-02-29T16:33:04.102Z,19.1
2024-02-29T16:38:42.884Z,18.6
2024-02-29T16:44:22.951Z,17.9
2024-02-29T16:50:05.054Z,17.4
2024-02-29T16:55:44.459Z,16.9
2024-02-29T17:01:24.281Z,16.4
2024-02-29T17:07:07.180Z,16
2024-02-29T17:12:49.348Z,15.6
2024-02-29T17:18:15.319Z,15.2
2024-02-29T17:23:54.574Z,14.8
2024-02-29T17:29:33.732Z,14.4
2024-02-29T17:35:12.962Z,14.1
2024-02-29T17:40:39.173Z,13.9
2024-02-29T17:46:17.944Z,13.6
2024-02-29T17:51:59.021Z,13.3
2024-02-29T17:57:38.866Z,13.1
2024-02-29T18:03:19.088Z,12.8
2024-02-29T18:09:07.117Z,12.6
2024-02-29T18:14:46.135Z,12.5
2024-02-29T18:20:26.001Z,12.3
2024-02-29T18:26:05.759Z,12.1
2024-02-29T18:31:44.956Z,11.9
2024-02-29T18:37:24.706Z,11.8
2024-02-29T18:43:04.069Z,11.6
2024-02-29T18:48:57.839Z,11.4
2024-02-29T18:54:39.214Z,11.3
2024-02-29T19:00:18.879Z,11.2
2024-02-29T19:06:00.422Z,11.1
2024-02-29T19:11:43.577Z,10.9
2024-02-29T19:16:51.643Z,10.9
2024-02-29T19:22:14.908Z,10.8
2024-02-29T19:27:57.968Z,10.6
2024-02-29T19:33:36.856Z,10.6
2024-02-29T19:39:19.488Z,10.4
2024-02-29T19:44:59.260Z,10.4
2024-02-29T19:50:23.364Z,10.3
2024-02-29T19:55:47.347Z,10.2
2024-02-29T20:01:27.345Z,10.1
2024-02-29T20:07:06.988Z,10.1
2024-02-29T20:12:30.888Z,9.9
2024-02-29T20:17:39.955Z,9.9
2024-02-29T20:23:05.110Z,9.8
2024-02-29T20:28:16.071Z,9.8
2024-02-29T20:33:40.720Z,9.8
2024-02-29T20:39:20.956Z,9.7
2024-02-29T20:44:45.396Z,9.7
2024-02-29T20:49:54.240Z,9.7
2024-02-29T20:55:18.143Z,9.6
2024-02-29T21:00:26.424Z,9.6
2024-02-29T21:05:34.747Z,9.6
2024-02-29T21:10:59.625Z,9.6
2024-02-29T21:16:23.317Z,9.5
2024-02-29T21:21:47.216Z,9.5
2024-02-29T21:27:10.806Z,9.5
2024-02-29T21:32:37.321Z,9.4
2024-02-29T21:38:01.180Z,9.4
2024-02-29T21:43:19.260Z,9.4
2024-02-29T21:48:58.230Z,9.4
2024-02-29T21:54:36.867Z,9.3
2024-02-29T22:00:16.111Z,9.3
2024-02-29T22:05:41.906Z,9.3
2024-02-29T22:11:23.786Z,9.2
2024-02-29T22:17:02.765Z,9.1
2024-02-29T22:22:45.381Z,9.1
2024-02-29T22:28:08.678Z,9.1
2024-02-29T22:33:48.473Z,9
2024-02-29T22:39:27.472Z,8.9
2024-02-29T22:45:18.567Z,8.9
2024-02-29T22:50:58.002Z,8.9
2024-02-29T22:56:37.173Z,8.8
2024-02-29T23:02:22.412Z,8.8
2024-02-29T23:08:02.075Z,8.8
2024-02-29T23:13:26.581Z,8.7
2024-02-29T23:18:50.187Z,8.7
2024-02-29T23:24:30.544Z,8.6
2024-02-29T23:30:14.416Z,8.6
2024-02-29T23:35:56.496Z,8.6
2024-02-29T23:41:20.605Z,8.5
2024-02-29T23:46:59.493Z,8.5
2024-02-29T23:52:38.233Z,8.4
2024-02-29T23:58:17.692Z,8.4
